Time;durP1;ratioP1;P1;durP2;ratioP2;P2;SDS_P1;SDS_P2;PMS_P1;PMS_P2;Temp;Humidity;BMP_temperature;BMP_pressure;BME280_temperature;BME280_humidity;BME280_pressure;Samples;Min_cycle;Max_cycle;Signal;HPM_P1;HPM_P2
2023/09/03 00:00:54;;;;;;;5.22;2.20;;;;;;;;;;5080742;28;20113;-85
2023/09/03 00:03:20;;;;;;;4.90;2.30;;;;;;;;;;5080726;28;20032;-84
2023/09/03 00:05:49;;;;;;;5.85;2.33;;;;;;;;;;5084773;28;20429;-85
2023/09/03 00:08:15;;;;;;;5.95;2.28;;;;;;;;;;5086956;28;20032;-85
2023/09/03 00:10:40;;;;;;;2.92;2.20;;;;;;;;;;5082761;28;20048;-85
2023/09/03 00:13:06;;;;;;;4.10;2.35;;;;;;;;;;5077630;28;20043;-85
2023/09/03 00:15:31;;;;;;;3.13;2.38;;;;;;;;;;5081045;28;20474;-85
2023/09/03 00:17:57;;;;;;;3.38;2.00;;;;;;;;;;5092126;28;20032;-85
2023/09/03 00:20:23;;;;;;;4.55;2.30;;;;;;;;;;5081983;28;20032;-85
2023/09/03 00:22:48;;;;;;;3.78;2.30;;;;;;;;;;5094616;28;20032;-85
2023/09/03 00:25:14;;;;;;;3.45;2.17;;;;;;;;;;5083136;28;20097;-85
2023/09/03 00:27:39;;;;;;;4.70;2.17;;;;;;;;;;5089051;28;20032;-85
2023/09/03 00:30:05;;;;;;;4.10;2.58;;;;;;;;;;5083827;28;20123;-85
2023/09/03 00:32:30;;;;;;;3.70;2.38;;;;;;;;;;5078395;28;20044;-85
2023/09/03 00:34:56;;;;;;;3.72;2.30;;;;;;;;;;5082864;28;20044;-85
2023/09/03 00:37:21;;;;;;;4.43;2.60;;;;;;;;;;5094876;28;20032;-84
2023/09/03 00:39:47;;;;;;;5.68;2.28;;;;;;;;;;5086868;28;20036;-84
2023/09/03 00:42:12;;;;;;;4.97;2.30;;;;;;;;;;5090913;28;20037;-84
2023/09/03 00:44:38;;;;;;;8.35;2.30;;;;;;;;;;5086030;28;20123;-84
2023/09/03 00:47:03;;;;;;;6.30;2.50;;;;;;;;;;5084166;28;20036;-84
2023/09/03 00:49:29;;;;;;;3.33;2.10;;;;;;;;;;5096026;28;20032;-84
2023/09/03 00:51:55;;;;;;;3.53;2.20;;;;;;;;;;5108793;28;20055;-85
2023/09/03 00:54:23;;;;;;;4.15;2.30;;;;;;;;;;5093795;28;20036;-84
2023/09/03 00:56:53;;;;;;;5.90;2.35;;;;;;;;;;5083371;28;20048;-84
2023/09/03 00:59:19;;;;;;;4.47;2.30;;;;;;;;;;5079406;28;20123;-85
2023/09/03 01:01:51;;;;;;;3.42;2.08;;;;;;;;;;5098053;28;20044;-85
2023/09/03 01:04:18;;;;;;;6.75;2.60;;;;;;;;;;5090345;28;20111;-85
2023/09/03 01:06:45;;;;;;;7.97;2.45;;;;;;;;;;5089091;28;20024;-85
2023/09/03 01:09:11;;;;;;;4.88;2.40;;;;;;;;;;5087128;28;20036;-85
2023/09/03 01:12:00;;;;;;;4.25;2.50;;;;;;;;;;5091477;28;20078;-84
2023/09/03 01:14:28;;;;;;;4.55;2.38;;;;;;;;;;5086867;28;20117;-85
2023/09/03 01:17:13;;;;;;;3.15;2.22;;;;;;;;;;5091863;28;20044;-85
2023/09/03 01:20:05;;;;;;;3.15;2.30;;;;;;;;;;5087120;28;20698;-85
2023/09/03 01:22:43;;;;;;;3.17;2.42;;;;;;;;;;5085428;28;20037;-85
2023/09/03 01:25:31;;;;;;;3.58;2.28;;;;;;;;;;5095620;28;20064;-84
2023/09/03 01:27:56;;;;;;;4.53;2.33;;;;;;;;;;5097460;28;20035;-85
2023/09/03 01:30:22;;;;;;;3.85;2.08;;;;;;;;;;5098797;28;20038;-85
2023/09/03 01:32:51;;;;;;;5.57;2.65;;;;;;;;;;5087657;28;20044;-84
2023/09/03 01:35:19;;;;;;;4.40;1.98;;;;;;;;;;5100034;28;20035;-84
2023/09/03 01:37:45;;;;;;;2.80;2.00;;;;;;;;;;5098234;28;20062;-84
2023/09/03 01:40:11;;;;;;;3.75;2.20;;;;;;;;;;5099053;28;20577;-84
2023/09/03 01:42:38;;;;;;;2.92;2.35;;;;;;;;;;5088966;28;20153;-84
2023/09/03 01:45:04;;;;;;;5.30;2.28;;;;;;;;;;5099988;28;20521;-84
2023/09/03 01:47:42;;;;;;;4.38;2.63;;;;;;;;;;5082061;28;20032;-84
2023/09/03 01:50:34;;;;;;;3.85;2.25;;;;;;;;;;5090634;28;20035;-84
2023/09/03 01:53:26;;;;;;;4.53;2.50;;;;;;;;;;5083647;28;20409;-84
2023/09/03 01:55:58;;;;;;;4.93;2.28;;;;;;;;;;5080183;28;20039;-85
2023/09/03 01:58:28;;;;;;;4.20;2.25;;;;;;;;;;5091142;28;20114;-84
2023/09/03 02:00:55;;;;;;;3.78;2.25;;;;;;;;;;5088454;28;20039;-84
2023/09/03 02:03:23;;;;;;;4.30;2.08;;;;;;;;;;5095255;28;20035;-84
2023/09/03 02:05:49;;;;;;;4.20;2.30;;;;;;;;;;5097781;28;20039;-84
2023/09/03 02:08:15;;;;;;;3.53;2.10;;;;;;;;;;5088606;28;20031;-84
2023/09/03 02:10:40;;;;;;;3.92;2.22;;;;;;;;;;5103260;28;20044;-84
2023/09/03 02:13:06;;;;;;;5.88;2.42;;;;;;;;;;5098024;28;20048;-85
2023/09/03 02:15:31;;;;;;;5.90;2.20;;;;;;;;;;5085031;28;20051;-84
2023/09/03 02:17:57;;;;;;;3.25;2.17;;;;;;;;;;5079408;28;20058;-84
2023/09/03 02:20:22;;;;;;;4.60;2.20;;;;;;;;;;5091056;28;20033;-83
2023/09/03 02:22:48;;;;;;;4.97;2.20;;;;;;;;;;5105720;28;20079;-85
2023/09/03 02:25:13;;;;;;;5.22;2.15;;;;;;;;;;5091865;28;20036;-84
2023/09/03 02:27:39;;;;;;;4.43;2.20;;;;;;;;;;5081927;28;20414;-84
2023/09/03 02:30:05;;;;;;;5.93;2.03;;;;;;;;;;5094096;28;20033;-85
2023/09/03 02:32:30;;;;;;;3.20;2.20;;;;;;;;;;5095924;28;20021;-84
2023/09/03 02:34:56;;;;;;;4.50;2.17;;;;;;;;;;5093586;28;20032;-84
2023/09/03 02:37:22;;;;;;;3.38;2.00;;;;;;;;;;5090592;28;20028;-83
2023/09/03 02:39:48;;;;;;;3.35;2.03;;;;;;;;;;5096284;28;20433;-83
2023/09/03 02:42:13;;;;;;;4.03;2.00;;;;;;;;;;5077511;28;20512;-83
2023/09/03 02:44:39;;;;;;;6.05;2.40;;;;;;;;;;5082169;28;20025;-84
2023/09/03 02:47:04;;;;;;;3.95;2.30;;;;;;;;;;5090005;28;20067;-85
2023/09/03 02:49:30;;;;;;;3.40;1.95;;;;;;;;;;5086399;28;20378;-86
2023/09/03 02:51:55;;;;;;;3.65;2.15;;;;;;;;;;5081171;28;20032;-86
2023/09/03 02:54:21;;;;;;;4.55;2.20;;;;;;;;;;5093544;28;20035;-84
2023/09/03 02:56:47;;;;;;;2.75;2.15;;;;;;;;;;5097570;28;20032;-84
2023/09/03 02:59:12;;;;;;;5.22;2.30;;;;;;;;;;5087362;28;20024;-84
2023/09/03 03:01:38;;;;;;;6.10;2.40;;;;;;;;;;5097288;28;20054;-84
2023/09/03 03:04:04;;;;;;;5.25;2.67;;;;;;;;;;5084040;28;20029;-84
2023/09/03 03:06:30;;;;;;;2.78;1.90;;;;;;;;;;5079037;28;20430;-86
2023/09/03 03:08:55;;;;;;;6.03;2.53;;;;;;;;;;5084988;28;20591;-86
2023/09/03 03:11:22;;;;;;;3.35;2.35;;;;;;;;;;5087985;28;20039;-85
2023/09/03 03:13:52;;;;;;;7.07;2.00;;;;;;;;;;5080553;28;20032;-85
2023/09/03 03:16:20;;;;;;;4.15;2.22;;;;;;;;;;5081320;28;20024;-85
2023/09/03 03:18:50;;;;;;;5.18;2.78;;;;;;;;;;5101414;28;20375;-85
2023/09/03 03:21:22;;;;;;;2.80;2.17;;;;;;;;;;5090586;28;20051;-85
2023/09/03 03:23:51;;;;;;;5.38;2.28;;;;;;;;;;5082095;28;20048;-85
2023/09/03 03:26:19;;;;;;;4.78;2.20;;;;;;;;;;5077234;28;20024;-85
2023/09/03 03:28:45;;;;;;;6.05;2.38;;;;;;;;;;5099645;28;20485;-85
2023/09/03 03:31:17;;;;;;;4.97;2.28;;;;;;;;;;5092303;28;20024;-85
2023/09/03 03:33:46;;;;;;;3.25;2.22;;;;;;;;;;5082980;28;20039;-85
2023/09/03 03:36:17;;;;;;;3.00;2.20;;;;;;;;;;5088240;28;20073;-85
2023/09/03 03:38:43;;;;;;;4.13;2.13;;;;;;;;;;5083770;28;20550;-86
2023/09/03 03:41:17;;;;;;;4.13;2.40;;;;;;;;;;5089777;28;20068;-84
2023/09/03 03:43:48;;;;;;;3.30;2.20;;;;;;;;;;5087614;28;20066;-84
2023/09/03 03:46:16;;;;;;;5.00;2.20;;;;;;;;;;5095015;28;20068;-84
2023/09/03 03:48:45;;;;;;;4.55;2.20;;;;;;;;;;5078182;28;20036;-84
2023/09/03 03:51:11;;;;;;;3.63;2.47;;;;;;;;;;5075440;28;20032;-84
2023/09/03 03:53:37;;;;;;;3.97;2.40;;;;;;;;;;5082454;28;20432;-84
2023/09/03 03:56:10;;;;;;;5.07;2.50;;;;;;;;;;5088166;28;20036;-85
2023/09/03 03:58:38;;;;;;;5.57;2.65;;;;;;;;;;5089913;28;20107;-85
2023/09/03 04:01:30;;;;;;;3.58;2.38;;;;;;;;;;5078655;28;20023;-85
2023/09/03 04:03:55;;;;;;;4.57;2.35;;;;;;;;;;5084544;28;20397;-85
2023/09/03 04:06:21;;;;;;;4.10;2.38;;;;;;;;;;5089798;28;20020;-84
2023/09/03 04:08:47;;;;;;;4.80;2.30;;;;;;;;;;5085743;28;20512;-85
2023/09/03 04:11:14;;;;;;;6.10;2.50;;;;;;;;;;5084940;28;20126;-84
2023/09/03 04:13:40;;;;;;;3.88;2.40;;;;;;;;;;5077423;28;20056;-84
2023/09/03 04:16:16;;;;;;;3.50;2.60;;;;;;;;;;5092728;28;20032;-84
2023/09/03 04:18:45;;;;;;;3.75;2.40;;;;;;;;;;5090030;28;20422;-84
2023/09/03 04:21:11;;;;;;;5.68;2.30;;;;;;;;;;5087493;28;20058;-84
2023/09/03 04:23:37;;;;;;;5.03;2.38;;;;;;;;;;5087873;28;20033;-84
2023/09/03 04:26:04;;;;;;;6.45;2.47;;;;;;;;;;5088085;28;20020;-85
2023/09/03 04:28:33;;;;;;;4.00;2.58;;;;;;;;;;5102982;28;20062;-84
2023/09/03 04:31:00;;;;;;;3.58;2.40;;;;;;;;;;5091391;28;20043;-85
2023/09/03 04:33:29;;;;;;;4.65;2.47;;;;;;;;;;5096782;28;20057;-85
2023/09/03 04:35:58;;;;;;;4.10;2.55;;;;;;;;;;5088407;28;20036;-84
2023/09/03 04:38:25;;;;;;;4.90;2.35;;;;;;;;;;5077779;28;20033;-83
2023/09/03 04:40:52;;;;;;;3.03;2.17;;;;;;;;;;5078152;28;20169;-84
2023/09/03 04:43:18;;;;;;;3.60;2.13;;;;;;;;;;5083498;28;20135;-84
2023/09/03 04:45:51;;;;;;;3.85;2.40;;;;;;;;;;5087878;28;20032;-84
2023/09/03 04:48:17;;;;;;;3.38;2.10;;;;;;;;;;5082535;28;20367;-84
2023/09/03 04:50:44;;;;;;;3.80;2.38;;;;;;;;;;5090137;28;20066;-85
2023/09/03 04:53:11;;;;;;;4.57;2.08;;;;;;;;;;5082152;28;20036;-85
2023/09/03 04:55:38;;;;;;;3.15;2.25;;;;;;;;;;5087593;28;20029;-85
2023/09/03 04:58:04;;;;;;;4.82;2.40;;;;;;;;;;5090279;28;20115;-83
2023/09/03 05:00:30;;;;;;;4.85;2.50;;;;;;;;;;5080072;28;20451;-84
2023/09/03 05:02:57;;;;;;;4.00;2.42;;;;;;;;;;5066228;28;20394;-84
2023/09/03 05:05:23;;;;;;;3.38;2.08;;;;;;;;;;5096415;28;20065;-83
2023/09/03 05:07:49;;;;;;;3.30;2.38;;;;;;;;;;5089612;28;20035;-85
2023/09/03 05:10:16;;;;;;;2.85;2.20;;;;;;;;;;5082144;28;20042;-84
2023/09/03 05:12:42;;;;;;;2.85;2.10;;;;;;;;;;5075516;28;20035;-85
2023/09/03 05:15:11;;;;;;;5.03;2.40;;;;;;;;;;5092290;28;20032;-83
2023/09/03 05:17:39;;;;;;;8.02;2.15;;;;;;;;;;5089107;28;20371;-84
2023/09/03 05:20:05;;;;;;;5.57;2.53;;;;;;;;;;5086400;28;20036;-84
2023/09/03 05:22:31;;;;;;;3.03;2.30;;;;;;;;;;5088836;28;20051;-84
2023/09/03 05:24:56;;;;;;;4.10;2.38;;;;;;;;;;5089992;28;20040;-84
2023/09/03 05:27:22;;;;;;;3.45;2.50;;;;;;;;;;5098673;28;20030;-85
2023/09/03 05:29:50;;;;;;;3.88;2.70;;;;;;;;;;5092401;28;20063;-85
2023/09/03 05:32:16;;;;;;;5.30;2.67;;;;;;;;;;5092538;28;20482;-84
2023/09/03 05:34:41;;;;;;;7.22;3.08;;;;;;;;;;5073295;28;20385;-84
2023/09/03 05:37:07;;;;;;;3.80;2.70;;;;;;;;;;5086817;28;20031;-83
2023/09/03 05:39:33;;;;;;;4.47;2.50;;;;;;;;;;5094399;28;20036;-84
2023/09/03 05:41:58;;;;;;;7.25;3.47;;;;;;;;;;5094010;28;20024;-84
2023/09/03 05:44:24;;;;;;;7.72;3.38;;;;;;;;;;5099188;28;20067;-84
2023/09/03 05:46:49;;;;;;;5.47;2.90;;;;;;;;;;5099163;28;20040;-85
2023/09/03 05:49:15;;;;;;;3.45;2.90;;;;;;;;;;5080469;28;20090;-85
2023/09/03 05:51:42;;;;;;;3.20;2.35;;;;;;;;;;5089490;28;20032;-85
2023/09/03 05:54:08;;;;;;;4.45;2.72;;;;;;;;;;5093392;28;20478;-84
2023/09/03 05:56:37;;;;;;;5.45;2.65;;;;;;;;;;5080688;28;20075;-84
2023/09/03 05:59:08;;;;;;;5.13;2.58;;;;;;;;;;5080052;28;20040;-84
2023/09/03 06:01:35;;;;;;;4.35;2.67;;;;;;;;;;5077898;28;20494;-84
2023/09/03 06:04:02;;;;;;;5.35;2.50;;;;;;;;;;5083745;28;20050;-84
2023/09/03 06:06:29;;;;;;;4.47;2.30;;;;;;;;;;5086048;28;20194;-84
2023/09/03 06:08:55;;;;;;;3.42;2.42;;;;;;;;;;5083039;28;20020;-84
2023/09/03 06:11:21;;;;;;;4.60;2.53;;;;;;;;;;5077454;28;20485;-85
2023/09/03 06:13:46;;;;;;;4.15;2.67;;;;;;;;;;5080642;28;20131;-85
2023/09/03 06:16:12;;;;;;;4.80;2.50;;;;;;;;;;5087666;28;20040;-83
2023/09/03 06:18:37;;;;;;;6.80;2.90;;;;;;;;;;5090753;28;20533;-83
2023/09/03 06:21:03;;;;;;;8.48;5.25;;;;;;;;;;5085515;28;20039;-83
2023/09/03 06:23:28;;;;;;;5.13;3.80;;;;;;;;;;5095985;28;20035;-83
2023/09/03 06:25:54;;;;;;;4.30;2.72;;;;;;;;;;5083848;28;20415;-85
2023/09/03 06:28:19;;;;;;;5.45;2.92;;;;;;;;;;5091747;28;20064;-85
2023/09/03 06:30:45;;;;;;;4.35;2.90;;;;;;;;;;5093554;28;20514;-83
2023/09/03 06:33:12;;;;;;;3.50;2.40;;;;;;;;;;5091301;28;20472;-84
2023/09/03 06:35:38;;;;;;;3.40;2.50;;;;;;;;;;5081799;28;20024;-84
2023/09/03 06:38:03;;;;;;;4.10;2.60;;;;;;;;;;5091995;28;20115;-84
2023/09/03 06:40:29;;;;;;;2.80;2.33;;;;;;;;;;5093001;28;20028;-83
2023/09/03 06:42:54;;;;;;;4.32;2.30;;;;;;;;;;5082767;28;20024;-84
2023/09/03 06:45:20;;;;;;;3.92;2.63;;;;;;;;;;5078318;28;20033;-82
2023/09/03 06:47:46;;;;;;;3.45;2.30;;;;;;;;;;5077918;28;20040;-86
2023/09/03 06:50:12;;;;;;;3.13;2.50;;;;;;;;;;5082455;28;20460;-84
2023/09/03 06:52:37;;;;;;;3.17;2.50;;;;;;;;;;5084267;28;20481;-85
2023/09/03 06:55:03;;;;;;;4.97;2.42;;;;;;;;;;5090553;28;20035;-84
2023/09/03 06:57:28;;;;;;;6.43;2.53;;;;;;;;;;5079475;28;20043;-84
2023/09/03 06:59:54;;;;;;;5.22;2.50;;;;;;;;;;5080497;28;20051;-85
2023/09/03 07:02:20;;;;;;;3.65;2.70;;;;;;;;;;5084105;28;20069;-85
2023/09/03 07:04:46;;;;;;;3.50;2.50;;;;;;;;;;5089666;28;20105;-85
2023/09/03 07:07:12;;;;;;;3.95;2.40;;;;;;;;;;5087997;28;20040;-85
2023/09/03 07:09:37;;;;;;;5.30;2.50;;;;;;;;;;5104748;28;20127;-84
2023/09/03 07:12:03;;;;;;;4.05;2.63;;;;;;;;;;5087696;28;20036;-84
2023/09/03 07:14:33;;;;;;;4.13;2.42;;;;;;;;;;5093702;28;20043;-84
2023/09/03 07:17:02;;;;;;;2.90;2.40;;;;;;;;;;5107538;28;20057;-84
2023/09/03 07:19:29;;;;;;;3.33;2.42;;;;;;;;;;5087807;28;20033;-84
2023/09/03 07:21:54;;;;;;;4.50;2.67;;;;;;;;;;5084579;28;20028;-85
2023/09/03 07:24:20;;;;;;;3.17;2.55;;;;;;;;;;5099798;28;20048;-84
2023/09/03 07:26:46;;;;;;;3.85;2.20;;;;;;;;;;5100525;28;20048;-84
2023/09/03 07:29:13;;;;;;;5.63;2.45;;;;;;;;;;5090491;28;20119;-84
2023/09/03 07:31:41;;;;;;;3.55;2.45;;;;;;;;;;5099381;28;20036;-85
2023/09/03 07:34:13;;;;;;;6.45;2.60;;;;;;;;;;5081155;28;20043;-83
2023/09/03 07:36:39;;;;;;;3.80;2.40;;;;;;;;;;5105786;28;20040;-83
2023/09/03 07:39:06;;;;;;;4.47;2.50;;;;;;;;;;5080334;28;20035;-83
2023/09/03 07:41:36;;;;;;;4.60;2.40;;;;;;;;;;5103767;28;20123;-83
2023/09/03 07:44:01;;;;;;;4.53;2.33;;;;;;;;;;5090292;28;20105;-83
2023/09/03 07:46:27;;;;;;;3.38;2.80;;;;;;;;;;5083691;28;20549;-83
2023/09/03 07:48:53;;;;;;;5.45;2.65;;;;;;;;;;5092330;28;20104;-83
2023/09/03 07:51:20;;;;;;;5.00;2.30;;;;;;;;;;5104690;28;20040;-82
2023/09/03 07:53:48;;;;;;;3.65;2.50;;;;;;;;;;5086156;28;20040;-86
2023/09/03 07:56:15;;;;;;;2.95;2.30;;;;;;;;;;5088508;28;20048;-86
2023/09/03 07:58:42;;;;;;;4.18;2.50;;;;;;;;;;5095933;28;20039;-86
2023/09/03 08:01:11;;;;;;;4.28;2.47;;;;;;;;;;5090205;28;20028;-86
2023/09/03 08:03:37;;;;;;;5.72;2.50;;;;;;;;;;5083587;28;20040;-86
2023/09/03 08:06:03;;;;;;;4.22;2.40;;;;;;;;;;5083820;28;20028;-87
2023/09/03 08:08:28;;;;;;;3.65;2.53;;;;;;;;;;5081980;28;20040;-84
2023/09/03 08:10:55;;;;;;;3.70;2.67;;;;;;;;;;5089668;28;20047;-84
2023/09/03 08:13:21;;;;;;;5.60;2.85;;;;;;;;;;5100718;28;20047;-84
2023/09/03 08:15:46;;;;;;;4.43;2.70;;;;;;;;;;5090658;28;20056;-85
2023/09/03 08:18:12;;;;;;;3.45;2.50;;;;;;;;;;5083257;28;20047;-85
2023/09/03 08:20:37;;;;;;;5.93;3.10;;;;;;;;;;5087916;28;20445;-86
2023/09/03 08:23:03;;;;;;;4.95;2.88;;;;;;;;;;5112724;28;20123;-85
2023/09/03 08:25:30;;;;;;;8.13;2.78;;;;;;;;;;5091196;28;20098;-85
2023/09/03 08:27:55;;;;;;;4.45;2.92;;;;;;;;;;5085173;28;20046;-84
2023/09/03 08:30:21;;;;;;;6.28;2.70;;;;;;;;;;5098429;28;20131;-82
2023/09/03 08:32:46;;;;;;;3.95;2.78;;;;;;;;;;5092682;28;20036;-83
2023/09/03 08:35:12;;;;;;;3.75;2.67;;;;;;;;;;5090053;28;20040;-83
2023/09/03 08:37:37;;;;;;;5.35;2.60;;;;;;;;;;5085587;28;20036;-84
2023/09/03 08:40:03;;;;;;;4.38;2.80;;;;;;;;;;5101111;28;20044;-84
2023/09/03 08:42:30;;;;;;;6.35;2.63;;;;;;;;;;5083328;28;20032;-83
2023/09/03 08:45:02;;;;;;;3.17;2.35;;;;;;;;;;5084162;28;20085;-83
2023/09/03 08:47:28;;;;;;;5.15;2.72;;;;;;;;;;5083962;28;20032;-82
2023/09/03 08:49:54;;;;;;;4.70;2.97;;;;;;;;;;5080747;28;20029;-83
2023/09/03 08:52:20;;;;;;;5.63;3.00;;;;;;;;;;5078361;28;20043;-82
2023/09/03 08:54:46;;;;;;;4.00;2.50;;;;;;;;;;5077452;28;20092;-82
2023/09/03 08:57:12;;;;;;;5.03;2.88;;;;;;;;;;5095769;28;20083;-83
2023/09/03 08:59:38;;;;;;;5.68;2.97;;;;;;;;;;5087458;28;20028;-84
2023/09/03 09:02:08;;;;;;;6.32;3.10;;;;;;;;;;5085675;28;20039;-83
2023/09/03 09:04:34;;;;;;;6.13;3.08;;;;;;;;;;5082911;28;20035;-82
2023/09/03 09:07:00;;;;;;;5.43;2.95;;;;;;;;;;5084503;28;20036;-82
2023/09/03 09:09:29;;;;;;;3.95;2.80;;;;;;;;;;5091772;28;20501;-83
2023/09/03 09:12:06;;;;;;;3.90;2.72;;;;;;;;;;5090308;28;20488;-82
2023/09/03 09:14:39;;;;;;;4.05;2.95;;;;;;;;;;5085504;28;20043;-82
2023/09/03 09:17:11;;;;;;;4.63;2.92;;;;;;;;;;5084932;28;20051;-83
2023/09/03 09:19:36;;;;;;;4.88;2.78;;;;;;;;;;5090910;28;20485;-83
2023/09/03 09:22:02;;;;;;;6.63;2.80;;;;;;;;;;5092033;28;20031;-83
2023/09/03 09:24:27;;;;;;;3.30;2.40;;;;;;;;;;5085077;28;20497;-83
2023/09/03 09:26:53;;;;;;;4.57;2.70;;;;;;;;;;5080598;28;20032;-83
2023/09/03 09:29:20;;;;;;;4.22;2.55;;;;;;;;;;5080982;28;20029;-82
2023/09/03 09:31:46;;;;;;;3.75;2.55;;;;;;;;;;5082752;28;20048;-82
2023/09/03 09:34:12;;;;;;;4.68;2.67;;;;;;;;;;5088168;28;20031;-83
2023/09/03 09:36:38;;;;;;;3.78;2.70;;;;;;;;;;5094187;28;20028;-82
2023/09/03 09:39:08;;;;;;;3.90;2.58;;;;;;;;;;5082736;28;20037;-83
2023/09/03 09:41:42;;;;;;;4.88;2.80;;;;;;;;;;5081485;28;20746;-84
2023/09/03 09:44:12;;;;;;;3.30;2.58;;;;;;;;;;5086875;28;20363;-84
2023/09/03 09:46:39;;;;;;;5.32;2.72;;;;;;;;;;5089773;28;20031;-83
2023/09/03 09:49:04;;;;;;;4.38;2.70;;;;;;;;;;5084973;28;20040;-83
2023/09/03 09:51:30;;;;;;;4.10;2.65;;;;;;;;;;5081378;28;20152;-82
2023/09/03 09:54:00;;;;;;;3.58;2.40;;;;;;;;;;5097998;28;20032;-82
2023/09/03 09:56:35;;;;;;;3.53;2.40;;;;;;;;;;5082178;28;20043;-83
2023/09/03 09:59:02;;;;;;;5.93;2.33;;;;;;;;;;5090337;28;20052;-82
2023/09/03 10:01:45;;;;;;;4.93;2.80;;;;;;;;;;5090004;28;20493;-81
2023/09/03 10:04:11;;;;;;;2.90;2.35;;;;;;;;;;5085627;28;20043;-83
2023/09/03 10:06:37;;;;;;;5.00;2.53;;;;;;;;;;5081386;28;20123;-83
2023/09/03 10:09:03;;;;;;;4.28;2.42;;;;;;;;;;5100477;28;20088;-85
2023/09/03 10:11:29;;;;;;;4.78;2.40;;;;;;;;;;5081509;28;20055;-84
2023/09/03 10:13:55;;;;;;;4.00;2.70;;;;;;;;;;5077433;28;20032;-85
2023/09/03 10:16:22;;;;;;;5.07;2.60;;;;;;;;;;5077083;28;20028;-82
2023/09/03 10:18:50;;;;;;;3.88;2.33;;;;;;;;;;5088996;28;20043;-86
2023/09/03 10:21:26;;;;;;;4.28;2.65;;;;;;;;;;5089005;28;20032;-88
2023/09/03 10:23:52;;;;;;;3.10;2.58;;;;;;;;;;5093132;28;20032;-87
2023/09/03 10:26:40;;;;;;;3.97;2.60;;;;;;;;;;5080524;28;20081;-83
2023/09/03 10:29:10;;;;;;;4.00;2.80;;;;;;;;;;5089382;28;20047;-83
2023/09/03 10:31:37;;;;;;;3.75;2.65;;;;;;;;;;5085172;28;20035;-84
2023/09/03 10:34:08;;;;;;;3.50;2.60;;;;;;;;;;5079931;28;20028;-83
2023/09/03 10:36:34;;;;;;;4.55;2.80;;;;;;;;;;5087762;28;20032;-83
2023/09/03 10:39:27;;;;;;;3.60;2.55;;;;;;;;;;5075369;28;20024;-84
2023/09/03 10:42:15;;;;;;;4.20;2.33;;;;;;;;;;5080912;28;20040;-83
2023/09/03 10:44:44;;;;;;;3.80;2.33;;;;;;;;;;5082126;28;20075;-84
2023/09/03 10:47:17;;;;;;;4.70;2.50;;;;;;;;;;5080190;28;20037;-82
2023/09/03 10:49:45;;;;;;;4.07;2.47;;;;;;;;;;5081182;28;20037;-83
2023/09/03 10:52:32;;;;;;;4.82;2.58;;;;;;;;;;5078156;28;20044;-83
2023/09/03 10:55:13;;;;;;;4.30;2.40;;;;;;;;;;5082624;28;20059;-83
2023/09/03 10:57:38;;;;;;;3.28;2.30;;;;;;;;;;5089350;28;20385;-82
2023/09/03 11:00:07;;;;;;;4.50;2.50;;;;;;;;;;5093568;28;20072;-82
2023/09/03 11:02:34;;;;;;;3.33;2.35;;;;;;;;;;5074892;28;20054;-83
2023/09/03 11:05:14;;;;;;;3.35;2.40;;;;;;;;;;5077844;28;20028;-84
2023/09/03 11:07:41;;;;;;;6.35;2.85;;;;;;;;;;5098257;28;20067;-84
2023/09/03 11:10:24;;;;;;;3.90;2.70;;;;;;;;;;5081990;28;20067;-86
2023/09/03 11:12:51;;;;;;;5.88;2.70;;;;;;;;;;5076386;28;20048;-85
2023/09/03 11:15:17;;;;;;;6.25;2.35;;;;;;;;;;5075556;28;20056;-85
2023/09/03 11:17:56;;;;;;;7.22;2.47;;;;;;;;;;5084241;28;20483;-85
2023/09/03 11:20:32;;;;;;;6.07;2.55;;;;;;;;;;5083151;28;20048;-85
2023/09/03 11:22:59;;;;;;;4.38;2.40;;;;;;;;;;5078758;28;20067;-85
2023/09/03 11:25:38;;;;;;;3.72;2.10;;;;;;;;;;5074514;28;20063;-84
2023/09/03 11:28:05;;;;;;;3.40;2.30;;;;;;;;;;5085864;28;20042;-85
2023/09/03 11:30:31;;;;;;;3.22;2.40;;;;;;;;;;5084246;28;20043;-84
2023/09/03 11:32:57;;;;;;;3.53;2.40;;;;;;;;;;5082482;28;20028;-84
2023/09/03 11:35:23;;;;;;;3.28;2.20;;;;;;;;;;5077131;28;20030;-84
2023/09/03 11:37:50;;;;;;;3.25;2.30;;;;;;;;;;5093072;28;20028;-84
2023/09/03 11:40:23;;;;;;;5.15;2.10;;;;;;;;;;5079276;28;20107;-85
2023/09/03 11:42:50;;;;;;;2.58;1.90;;;;;;;;;;5080316;28;20032;-85
2023/09/03 11:45:16;;;;;;;2.40;1.80;;;;;;;;;;5075319;28;20043;-85
2023/09/03 11:47:48;;;;;;;3.67;2.10;;;;;;;;;;5085161;28;20110;-85
2023/09/03 11:50:14;;;;;;;3.08;1.80;;;;;;;;;;5078627;28;20129;-85
2023/09/03 11:53:04;;;;;;;4.93;1.90;;;;;;;;;;5088059;28;20482;-85
2023/09/03 11:55:36;;;;;;;3.22;2.10;;;;;;;;;;5083844;28;20032;-84
2023/09/03 11:58:03;;;;;;;2.30;1.70;;;;;;;;;;5077109;28;20474;-85
2023/09/03 12:00:30;;;;;;;2.67;1.77;;;;;;;;;;5075252;28;20487;-85
2023/09/03 12:02:58;;;;;;;2.60;1.80;;;;;;;;;;5075508;28;20028;-85
2023/09/03 12:05:24;;;;;;;3.20;2.00;;;;;;;;;;5081997;28;20028;-82
2023/09/03 12:07:50;;;;;;;3.05;1.80;;;;;;;;;;5080627;28;20033;-83
2023/09/03 12:10:19;;;;;;;2.08;1.70;;;;;;;;;;5076983;28;20073;-83
2023/09/03 12:12:45;;;;;;;3.55;2.00;;;;;;;;;;5073702;28;20036;-84
2023/09/03 12:15:21;;;;;;;2.75;1.70;;;;;;;;;;5093008;28;20036;-84
2023/09/03 12:17:47;;;;;;;2.67;1.90;;;;;;;;;;5079607;28;20024;-85
2023/09/03 12:20:34;;;;;;;2.22;1.75;;;;;;;;;;5089205;28;20020;-87
2023/09/03 12:23:18;;;;;;;2.90;1.90;;;;;;;;;;5076952;28;20758;-87
2023/09/03 12:25:44;;;;;;;2.90;1.75;;;;;;;;;;5097216;28;20035;-84
2023/09/03 12:28:10;;;;;;;2.60;1.55;;;;;;;;;;5102564;28;20044;-85
2023/09/03 12:30:59;;;;;;;2.28;1.42;;;;;;;;;;5084440;28;20086;-84
2023/09/03 12:33:34;;;;;;;2.53;1.63;;;;;;;;;;5078354;28;20381;-85
2023/09/03 12:36:13;;;;;;;2.85;1.50;;;;;;;;;;5078421;28;20043;-86
2023/09/03 12:38:52;;;;;;;6.82;1.50;;;;;;;;;;5078096;28;20035;-85
2023/09/03 12:41:18;;;;;;;2.60;1.50;;;;;;;;;;5099940;28;20482;-85
2023/09/03 12:43:43;;;;;;;1.98;1.50;;;;;;;;;;5089997;28;20069;-86
2023/09/03 12:46:12;;;;;;;2.00;1.50;;;;;;;;;;5081199;28;20086;-83
2023/09/03 12:48:38;;;;;;;4.07;1.40;;;;;;;;;;5074207;28;20428;-82
2023/09/03 12:51:03;;;;;;;3.83;1.40;;;;;;;;;;5081792;28;20032;-81
2023/09/03 12:53:29;;;;;;;3.72;1.63;;;;;;;;;;5078169;28;20505;-83
2023/09/03 12:55:55;;;;;;;2.25;1.40;;;;;;;;;;5079111;28;20106;-82
2023/09/03 12:58:21;;;;;;;1.90;1.20;;;;;;;;;;5076406;28;20086;-83
2023/09/03 13:00:47;;;;;;;3.38;1.40;;;;;;;;;;5076112;28;20058;-84
2023/09/03 13:03:13;;;;;;;1.80;1.40;;;;;;;;;;5096998;28;20436;-84
2023/09/03 13:05:38;;;;;;;2.13;1.40;;;;;;;;;;5086339;28;20485;-83
2023/09/03 13:08:04;;;;;;;4.15;1.73;;;;;;;;;;5079944;28;20488;-84
2023/09/03 13:10:30;;;;;;;2.97;1.58;;;;;;;;;;5076713;28;20025;-83
2023/09/03 13:12:55;;;;;;;2.25;1.50;;;;;;;;;;5077210;28;20382;-82
2023/09/03 13:15:21;;;;;;;3.03;1.50;;;;;;;;;;5084357;28;20040;-84
2023/09/03 13:17:49;;;;;;;4.53;1.70;;;;;;;;;;5098609;28;20029;-88
2023/09/03 13:20:15;;;;;;;2.95;1.45;;;;;;;;;;5078153;28;20052;-83
2023/09/03 13:22:40;;;;;;;2.10;1.40;;;;;;;;;;5074559;28;20076;-84
2023/09/03 13:25:06;;;;;;;2.20;1.48;;;;;;;;;;5082303;28;20036;-82
2023/09/03 13:27:32;;;;;;;3.92;1.90;;;;;;;;;;5087476;28;20036;-83
2023/09/03 13:29:57;;;;;;;6.97;1.70;;;;;;;;;;5093166;28;20027;-80
2023/09/03 13:32:23;;;;;;;3.05;1.63;;;;;;;;;;5092885;28;20385;-83
2023/09/03 13:34:48;;;;;;;2.75;1.70;;;;;;;;;;5079925;28;20032;-84
2023/09/03 13:37:14;;;;;;;3.42;1.73;;;;;;;;;;5083161;28;20028;-84
2023/09/03 13:39:39;;;;;;;2.28;1.52;;;;;;;;;;5083130;28;20558;-84
2023/09/03 13:42:05;;;;;;;3.00;1.55;;;;;;;;;;5078381;28;20476;-84
2023/09/03 13:44:30;;;;;;;2.40;1.60;;;;;;;;;;5083488;28;20035;-83
2023/09/03 13:46:56;;;;;;;4.38;1.70;;;;;;;;;;5078993;28;20037;-83
2023/09/03 13:49:22;;;;;;;3.85;1.60;;;;;;;;;;5082757;28;20028;-82
2023/09/03 13:51:48;;;;;;;2.97;1.63;;;;;;;;;;5088613;28;20032;-84
2023/09/03 13:54:14;;;;;;;2.30;1.63;;;;;;;;;;5091868;28;20045;-85
2023/09/03 13:56:39;;;;;;;2.20;1.52;;;;;;;;;;5082096;28;20044;-82
2023/09/03 13:59:05;;;;;;;3.30;1.60;;;;;;;;;;5078078;28;20393;-85
2023/09/03 14:01:30;;;;;;;4.43;1.58;;;;;;;;;;5082148;28;20012;-83
2023/09/03 14:03:56;;;;;;;6.55;1.80;;;;;;;;;;5088468;28;20135;-83
2023/09/03 14:06:21;;;;;;;2.97;1.55;;;;;;;;;;5082800;28;20017;-83
2023/09/03 14:08:47;;;;;;;2.97;1.50;;;;;;;;;;5078856;28;20444;-82
2023/09/03 14:11:13;;;;;;;3.88;1.63;;;;;;;;;;5094420;28;20117;-85
2023/09/03 14:13:38;;;;;;;2.58;1.70;;;;;;;;;;5085414;28;20720;-83
2023/09/03 14:16:12;;;;;;;2.30;1.50;;;;;;;;;;5087597;28;20038;-81
2023/09/03 14:18:38;;;;;;;1.67;1.50;;;;;;;;;;5083873;28;20039;-82
2023/09/03 14:21:05;;;;;;;3.20;1.70;;;;;;;;;;5088056;28;20460;-81
2023/09/03 14:23:31;;;;;;;2.38;1.50;;;;;;;;;;5093268;28;20089;-81
2023/09/03 14:25:56;;;;;;;2.47;1.42;;;;;;;;;;5090244;28;20416;-81
2023/09/03 14:28:22;;;;;;;1.98;1.50;;;;;;;;;;5086696;28;20024;-82
2023/09/03 14:30:47;;;;;;;2.80;1.48;;;;;;;;;;5080957;28;20040;-82
2023/09/03 14:33:13;;;;;;;1.85;1.40;;;;;;;;;;5077802;28;20033;-82
2023/09/03 14:35:39;;;;;;;2.65;1.60;;;;;;;;;;5093835;28;20029;-81
2023/09/03 14:38:05;;;;;;;2.25;1.40;;;;;;;;;;5088070;28;20532;-81
2023/09/03 14:40:31;;;;;;;3.28;1.33;;;;;;;;;;5084963;28;20078;-81
2023/09/03 14:42:56;;;;;;;3.10;1.52;;;;;;;;;;5080970;28;20031;-82
2023/09/03 14:45:22;;;;;;;5.38;1.70;;;;;;;;;;5096124;28;20032;-82
2023/09/03 14:47:47;;;;;;;3.78;1.40;;;;;;;;;;5083699;28;20041;-85